Time,TemperatureF,DewpointF,PressureIn,WindDirection,WindDirectionDegrees,WindSpeedMPH,WindSpeedGustMPH,Humidity,HourlyPrecipIn,Conditions,Clouds,dailyrainin,SolarRadiationWatts/m^2,SoftwareType,DateUTC
2013-02-06 00:11:00,29.0,18.0,-100.00,SSE,156,2.0,6.0,62,0.00,,,-99.99,0.000000,,2013-02-06 07:11:00,
2013-02-06 00:21:00,29.0,18.0,-100.00,SSE,156,2.0,6.0,62,0.00,,,-99.99,0.000000,,2013-02-06 07:21:00,
2013-02-06 00:32:00,29.0,18.0,-100.00,SSE,156,2.0,6.0,62,0.00,,,-99.99,0.000000,,2013-02-06 07:32:00,
2013-02-06 00:41:00,29.0,18.0,-100.00,SSE,156,2.0,6.0,62,0.00,,,-99.99,0.000000,,2013-02-06 07:41:00,
2013-02-06 00:51:00,28.0,17.0,-100.00,West,272,4.0,6.0,63,0.00,,,0.00,,,2013-02-06 07:51:00,
2013-02-06 01:21:00,28.0,17.0,-100.00,West,272,4.0,6.0,63,0.00,,,0.00,,,2013-02-06 08:21:00,
2013-02-06 01:31:00,28.0,17.0,-100.00,West,272,4.0,6.0,63,0.00,,,0.00,,,2013-02-06 08:31:00,
2013-02-06 01:41:00,28.0,17.0,-100.00,West,272,4.0,6.0,63,0.00,,,0.00,,,2013-02-06 08:41:00,
2013-02-06 01:51:00,28.0,17.0,-100.00,WSW,240,3.0,8.0,62,0.00,,,0.00,0.000000,,2013-02-06 08:51:00,
2013-02-06 02:11:00,28.0,17.0,-100.00,WSW,240,3.0,8.0,62,0.00,,,0.00,0.000000,,2013-02-06 09:11:00,
2013-02-06 02:21:00,28.0,17.0,-100.00,WSW,240,3.0,8.0,62,0.00,,,0.00,0.000000,,2013-02-06 09:21:00,
2013-02-06 02:31:00,28.0,17.0,-100.00,WSW,240,3.0,8.0,62,0.00,,,0.00,0.000000,,2013-02-06 09:31:00,
2013-02-06 02:41:00,28.0,17.0,-100.00,WSW,240,3.0,8.0,62,0.00,,,0.00,0.000000,,2013-02-06 09:41:00,
2013-02-06 03:11:00,28.0,18.0,-100.00,South,174,1.0,4.0,67,-99.99,,,0.00,0.000000,,2013-02-06 10:11:00,
2013-02-06 03:21:00,28.0,18.0,-100.00,South,174,1.0,4.0,67,-99.99,,,0.00,0.000000,,2013-02-06 10:21:00,
2013-02-06 03:31:00,28.0,18.0,-100.00,South,174,1.0,4.0,67,-99.99,,,0.00,0.000000,,2013-02-06 10:31:00,
2013-02-06 03:51:00,24.0,17.0,-100.00,WNW,288,3.0,4.0,74,-99.99,,,0.00,0.000000,,2013-02-06 10:51:00,
2013-02-06 04:22:00,24.0,17.0,-100.00,WNW,288,3.0,4.0,74,-99.99,,,0.00,0.000000,,2013-02-06 11:22:00,
2013-02-06 04:32:00,24.0,17.0,-100.00,WNW,288,3.0,4.0,74,-99.99,,,0.00,0.000000,,2013-02-06 11:32:00,
2013-02-06 04:42:00,24.0,17.0,-100.00,WNW,288,3.0,4.0,74,-99.99,,,0.00,0.000000,,2013-02-06 11:42:00,
2013-02-06 04:51:00,23.0,15.0,-100.00,West,271,4.0,6.0,71,0.00,,,0.00,0.000000,,2013-02-06 11:51:00,
2013-02-06 05:12:00,23.0,15.0,-100.00,West,271,4.0,6.0,71,0.00,,,0.00,0.000000,,2013-02-06 12:12:00,
2013-02-06 05:22:00,23.0,15.0,-100.00,West,271,4.0,6.0,71,0.00,,,0.00,0.000000,,2013-02-06 12:22:00,
2013-02-06 05:32:00,23.0,15.0,-100.00,West,271,4.0,6.0,71,0.00,,,0.00,0.000000,,2013-02-06 12:32:00,
2013-02-06 05:42:00,23.0,15.0,-100.00,West,271,4.0,6.0,71,0.00,,,0.00,0.000000,,2013-02-06 12:42:00,
2013-02-06 05:51:00,27.0,18.0,-100.00,North,358,1.0,5.0,67,0.00,,,0.00,0.000000,,2013-02-06 12:51:00,
2013-02-06 06:11:00,27.0,18.0,-100.00,North,358,1.0,5.0,67,0.00,,,0.00,0.000000,,2013-02-06 13:11:00,
2013-02-06 06:21:00,27.0,18.0,-100.00,North,358,1.0,5.0,67,0.00,,,0.00,0.000000,,2013-02-06 13:21:00,
2013-02-06 06:31:00,27.0,18.0,-100.00,North,358,1.0,5.0,67,0.00,,,0.00,0.000000,,2013-02-06 13:31:00,
2013-02-06 06:42:00,27.0,18.0,-100.00,North,358,1.0,5.0,67,0.00,,,0.00,0.000000,,2013-02-06 13:42:00,
2013-02-06 06:51:00,25.0,17.0,-100.00,NW,314,1.0,5.0,72,0.00,,,0.00,0.000000,,2013-02-06 13:51:00,
2013-02-06 07:21:00,25.0,17.0,-100.00,NW,314,1.0,5.0,72,0.00,,,0.00,0.000000,,2013-02-06 14:21:00,
2013-02-06 07:31:00,25.0,17.0,-100.00,NW,314,1.0,5.0,72,0.00,,,0.00,0.000000,,2013-02-06 14:31:00,
2013-02-06 07:41:00,25.0,17.0,-100.00,NW,314,1.0,5.0,72,0.00,,,0.00,0.000000,,2013-02-06 14:41:00,
2013-02-06 07:51:00,26.0,18.0,-100.00,North,10,1.0,7.0,72,0.00,,,0.00,27.000000,,2013-02-06 14:51:00,
2013-02-06 08:11:00,26.0,18.0,-100.00,North,10,1.0,7.0,72,0.00,,,0.00,27.000000,,2013-02-06 15:11:00,
2013-02-06 08:21:00,26.0,18.0,-100.00,North,10,1.0,7.0,72,0.00,,,0.00,27.000000,,2013-02-06 15:21:00,
2013-02-06 08:31:00,26.0,18.0,-100.00,North,10,1.0,7.0,72,0.00,,,0.00,27.000000,,2013-02-06 15:31:00,
2013-02-06 08:41:00,26.0,18.0,-100.00,North,10,1.0,7.0,72,0.00,,,0.00,27.000000,,2013-02-06 15:41:00,
2013-02-06 08:51:00,30.0,19.0,-100.00,NE,35,2.0,6.0,63,0.00,,,0.00,206.000000,,2013-02-06 15:51:00,
2013-02-06 09:11:00,30.0,19.0,-100.00,NE,35,2.0,6.0,63,0.00,,,0.00,206.000000,,2013-02-06 16:11:00,
2013-02-06 09:21:00,30.0,19.0,-100.00,NE,35,2.0,6.0,63,0.00,,,0.00,206.000000,,2013-02-06 16:21:00,
2013-02-06 09:32:00,30.0,19.0,-100.00,NE,35,2.0,6.0,63,0.00,,,0.00,206.000000,,2013-02-06 16:32:00,
2013-02-06 09:41:00,30.0,19.0,-100.00,NE,35,2.0,6.0,63,0.00,,,0.00,206.000000,,2013-02-06 16:41:00,
2013-02-06 09:51:00,34.0,22.0,-100.00,WNW,287,2.0,6.0,60,0.00,,,0.00,308.000000,,2013-02-06 16:51:00,
2013-02-06 10:11:00,34.0,22.0,-100.00,WNW,287,2.0,6.0,60,0.00,,,0.00,308.000000,,2013-02-06 17:11:00,
2013-02-06 10:21:00,34.0,22.0,-100.00,WNW,287,2.0,6.0,60,0.00,,,0.00,308.000000,,2013-02-06 17:21:00,
2013-02-06 10:32:00,34.0,22.0,-100.00,WNW,287,2.0,6.0,60,0.00,,,0.00,308.000000,,2013-02-06 17:32:00,
2013-02-06 10:41:00,34.0,22.0,-100.00,WNW,287,2.0,6.0,60,0.00,,,0.00,308.000000,,2013-02-06 17:41:00,
2013-02-06 10:51:00,37.0,23.0,-100.00,SSE,167,3.0,4.0,57,0.00,,,0.00,465.000000,,2013-02-06 17:51:00,
2013-02-06 11:11:00,37.0,23.0,-100.00,SSE,167,3.0,4.0,57,0.00,,,0.00,465.000000,,2013-02-06 18:11:00,
2013-02-06 11:22:00,37.0,23.0,-100.00,SSE,167,3.0,4.0,57,0.00,,,0.00,465.000000,,2013-02-06 18:22:00,
2013-02-06 11:32:00,37.0,23.0,-100.00,SSE,167,3.0,4.0,57,0.00,,,0.00,465.000000,,2013-02-06 18:32:00,
2013-02-06 11:41:00,37.0,23.0,-100.00,SSE,167,3.0,4.0,57,0.00,,,0.00,465.000000,,2013-02-06 18:41:00,
2013-02-06 11:51:00,38.0,22.0,-100.00,SSE,151,3.0,7.0,51,0.00,,,0.00,379.000000,,2013-02-06 18:51:00,
2013-02-06 12:21:00,38.0,22.0,-100.00,SSE,151,3.0,7.0,51,0.00,,,0.00,379.000000,,2013-02-06 19:21:00,
2013-02-06 12:31:00,38.0,22.0,-100.00,SSE,151,3.0,7.0,51,0.00,,,0.00,379.000000,,2013-02-06 19:31:00,
2013-02-06 12:41:00,38.0,22.0,-100.00,SSE,151,3.0,7.0,51,0.00,,,0.00,379.000000,,2013-02-06 19:41:00,
2013-02-06 12:51:00,37.0,23.0,-100.00,North,354,2.0,7.0,56,0.00,,,0.00,432.000000,,2013-02-06 19:51:00,
2013-02-06 13:11:00,37.0,23.0,-100.00,North,354,2.0,7.0,56,0.00,,,0.00,432.000000,,2013-02-06 20:11:00,
2013-02-06 13:21:00,37.0,23.0,-100.00,North,354,2.0,7.0,56,0.00,,,0.00,432.000000,,2013-02-06 20:21:00,
2013-02-06 13:31:00,37.0,23.0,-100.00,North,354,2.0,7.0,56,0.00,,,0.00,432.000000,,2013-02-06 20:31:00,
2013-02-06 13:41:00,37.0,23.0,-100.00,North,354,2.0,7.0,56,0.00,,,0.00,432.000000,,2013-02-06 20:41:00,
2013-02-06 13:51:00,41.0,24.0,-100.00,WNW,292,1.0,5.0,51,0.00,,,0.00,349.000000,,2013-02-06 20:51:00,
2013-02-06 14:11:00,41.0,24.0,-100.00,WNW,292,1.0,5.0,51,0.00,,,0.00,349.000000,,2013-02-06 21:11:00,
2013-02-06 14:21:00,41.0,24.0,-100.00,WNW,292,1.0,5.0,51,0.00,,,0.00,349.000000,,2013-02-06 21:21:00,
2013-02-06 14:31:00,41.0,24.0,-100.00,WNW,292,1.0,5.0,51,0.00,,,0.00,349.000000,,2013-02-06 21:31:00,
2013-02-06 14:41:00,41.0,24.0,-100.00,WNW,292,1.0,5.0,51,0.00,,,0.00,349.000000,,2013-02-06 21:41:00,
2013-02-06 14:51:00,43.0,24.0,-100.00,SSE,161,4.0,6.0,47,0.00,,,0.00,468.000000,,2013-02-06 21:51:00,
2013-02-06 15:11:00,43.0,24.0,-100.00,SSE,161,4.0,6.0,47,0.00,,,0.00,468.000000,,2013-02-06 22:11:00,
2013-02-06 15:21:00,43.0,24.0,-100.00,SSE,161,4.0,6.0,47,0.00,,,0.00,468.000000,,2013-02-06 22:21:00,
2013-02-06 15:31:00,43.0,24.0,-100.00,SSE,161,4.0,6.0,47,0.00,,,0.00,468.000000,,2013-02-06 22:31:00,
2013-02-06 15:41:00,43.0,24.0,-100.00,SSE,161,4.0,6.0,47,0.00,,,0.00,468.000000,,2013-02-06 22:41:00,
2013-02-06 15:51:00,39.0,23.0,-100.00,WNW,297,6.0,9.0,52,0.00,,,0.00,220.000000,,2013-02-06 22:51:00,
2013-02-06 16:11:00,39.0,23.0,-100.00,WNW,297,6.0,9.0,52,0.00,,,0.00,220.000000,,2013-02-06 23:11:00,
2013-02-06 16:21:00,39.0,23.0,-100.00,WNW,297,6.0,9.0,52,0.00,,,0.00,220.000000,,2013-02-06 23:21:00,
2013-02-06 16:31:00,39.0,23.0,-100.00,WNW,297,6.0,9.0,52,0.00,,,0.00,220.000000,,2013-02-06 23:31:00,
2013-02-06 16:41:00,39.0,23.0,-100.00,WNW,297,6.0,9.0,52,0.00,,,0.00,220.000000,,2013-02-06 23:41:00,
2013-02-06 16:51:00,38.0,25.0,-100.00,NW,310,9.0,15.0,59,0.00,,,0.00,128.000000,,2013-02-06 23:51:00,
2013-02-06 17:11:00,38.0,25.0,-100.00,NW,310,9.0,15.0,59,0.00,,,0.00,128.000000,,2013-02-07 00:11:00,
2013-02-06 17:21:00,38.0,25.0,-100.00,NW,310,9.0,15.0,59,0.00,,,0.00,128.000000,,2013-02-07 00:21:00,
2013-02-06 17:31:00,38.0,25.0,-100.00,NW,310,9.0,15.0,59,0.00,,,0.00,128.000000,,2013-02-07 00:31:00,
2013-02-06 17:41:00,38.0,25.0,-100.00,NW,310,9.0,15.0,59,0.00,,,0.00,128.000000,,2013-02-07 00:41:00,
2013-02-06 17:51:00,37.0,28.0,-100.00,NW,305,9.0,14.0,69,0.00,,,0.00,23.000000,,2013-02-07 00:51:00,
2013-02-06 18:11:00,37.0,28.0,-100.00,NW,305,9.0,14.0,69,0.00,,,0.00,23.000000,,2013-02-07 01:11:00,
2013-02-06 18:21:00,37.0,28.0,-100.00,NW,305,9.0,14.0,69,0.00,,,0.00,23.000000,,2013-02-07 01:21:00,
2013-02-06 18:31:00,37.0,28.0,-100.00,NW,305,9.0,14.0,69,0.00,,,0.00,23.000000,,2013-02-07 01:31:00,
2013-02-06 18:41:00,37.0,28.0,-100.00,NW,305,9.0,14.0,69,0.00,,,0.00,23.000000,,2013-02-07 01:41:00,
2013-02-06 18:51:00,35.0,30.0,-100.00,NW,325,4.0,11.0,81,0.00,,,0.00,0.000000,,2013-02-07 01:51:00,
2013-02-06 19:21:00,35.0,30.0,-100.00,NW,325,4.0,11.0,81,0.00,,,0.00,0.000000,,2013-02-07 02:21:00,
2013-02-06 19:31:00,35.0,30.0,-100.00,NW,325,4.0,11.0,81,0.00,,,0.00,0.000000,,2013-02-07 02:31:00,
2013-02-06 19:41:00,35.0,30.0,-100.00,NW,325,4.0,11.0,81,0.00,,,0.00,0.000000,,2013-02-07 02:41:00,
2013-02-06 19:51:00,35.0,30.0,-100.00,WNW,291,5.0,9.0,81,0.00,,,0.00,0.000000,,2013-02-07 02:51:00,
2013-02-06 20:11:00,35.0,30.0,-100.00,WNW,291,5.0,9.0,81,0.00,,,0.00,0.000000,,2013-02-07 03:11:00,
2013-02-06 20:21:00,35.0,30.0,-100.00,WNW,291,5.0,9.0,81,0.00,,,0.00,0.000000,,2013-02-07 03:21:00,
2013-02-06 20:31:00,35.0,30.0,-100.00,WNW,291,5.0,9.0,81,0.00,,,0.00,0.000000,,2013-02-07 03:31:00,
2013-02-06 20:41:00,35.0,30.0,-100.00,WNW,291,5.0,9.0,81,0.00,,,0.00,0.000000,,2013-02-07 03:41:00,
2013-02-06 20:51:00,35.0,29.0,-100.00,WNW,298,6.0,9.0,78,0.00,,,0.00,0.000000,,2013-02-07 03:51:00,
2013-02-06 21:11:00,35.0,29.0,-100.00,WNW,298,6.0,9.0,78,0.00,,,0.00,0.000000,,2013-02-07 04:11:00,
2013-02-06 21:22:00,35.0,29.0,-100.00,WNW,298,6.0,9.0,78,0.00,,,0.00,0.000000,,2013-02-07 04:22:00,
2013-02-06 21:31:00,35.0,29.0,-100.00,WNW,298,6.0,9.0,78,0.00,,,0.00,0.000000,,2013-02-07 04:31:00,
2013-02-06 21:41:00,35.0,29.0,-100.00,WNW,298,6.0,9.0,78,0.00,,,0.00,0.000000,,2013-02-07 04:41:00,
2013-02-06 21:51:00,33.0,27.0,-100.00,SW,233,3.0,6.0,77,0.00,,,0.00,0.000000,,2013-02-07 04:51:00,
2013-02-06 22:11:00,33.0,27.0,-100.00,SW,233,3.0,6.0,77,0.00,,,0.00,0.000000,,2013-02-07 05:11:00,
2013-02-06 22:21:00,33.0,27.0,-100.00,SW,233,3.0,6.0,77,0.00,,,0.00,0.000000,,2013-02-07 05:21:00,
2013-02-06 22:32:00,33.0,27.0,-100.00,SW,233,3.0,6.0,77,0.00,,,0.00,0.000000,,2013-02-07 05:32:00,
2013-02-06 22:42:00,33.0,27.0,-100.00,SW,233,3.0,6.0,77,0.00,,,0.00,0.000000,,2013-02-07 05:42:00,
2013-02-06 22:51:00,31.0,29.0,-100.00,NW,323,4.0,5.0,92,0.00,,,0.00,0.000000,,2013-02-07 05:51:00,
2013-02-06 23:11:00,31.0,29.0,-100.00,NW,323,4.0,5.0,92,0.00,,,0.00,0.000000,,2013-02-07 06:11:00,
2013-02-06 23:22:00,31.0,29.0,-100.00,NW,323,4.0,5.0,92,0.00,,,0.00,0.000000,,2013-02-07 06:22:00,
2013-02-06 23:31:00,31.0,29.0,-100.00,NW,323,4.0,5.0,92,0.00,,,0.00,0.000000,,2013-02-07 06:31:00,
2013-02-06 23:43:00,31.0,29.0,-100.00,NW,323,4.0,5.0,92,0.00,,,0.00,0.000000,,2013-02-07 06:43:00,
2013-02-06 23:51:00,31.0,24.0,-100.00,West,259,5.0,8.0,75,0.00,,,-99.99,0.000000,,2013-02-07 06:51:00,